Time;durP1;ratioP1;P1;durP2;ratioP2;P2;SDS_P1;SDS_P2;PMS_P1;PMS_P2;Temp;Humidity;BMP_temperature;BMP_pressure;BME280_temperature;BME280_humidity;BME280_pressure;Samples;Min_cycle;Max_cycle;Signal;HPM_P1;HPM_P2
2023/01/22 00:00:00;;;;;;;8.75;4.72;;;;;;;;;;5103396;28;20346;-80
2023/01/22 00:02:25;;;;;;;7.43;4.43;;;;;;;;;;5094652;28;20085;-77
2023/01/22 00:04:51;;;;;;;7.57;4.53;;;;;;;;;;5091816;28;20024;-80
2023/01/22 00:07:16;;;;;;;9.57;4.80;;;;;;;;;;5098533;28;20415;-71
2023/01/22 00:09:42;;;;;;;7.00;4.47;;;;;;;;;;5103297;28;20031;-71
2023/01/22 00:12:08;;;;;;;7.75;4.57;;;;;;;;;;5084928;28;20044;-71
2023/01/22 00:14:34;;;;;;;7.95;4.50;;;;;;;;;;5102866;28;20035;-70
2023/01/22 00:16:59;;;;;;;7.85;4.63;;;;;;;;;;5103082;28;20091;-76
2023/01/22 00:19:24;;;;;;;8.35;4.68;;;;;;;;;;5102608;28;20023;-71
2023/01/22 00:21:50;;;;;;;7.88;4.60;;;;;;;;;;5102963;28;20328;-67
2023/01/22 00:24:15;;;;;;;7.13;4.53;;;;;;;;;;5102442;28;20095;-70
2023/01/22 00:26:41;;;;;;;7.90;4.53;;;;;;;;;;5102863;28;20251;-71
2023/01/22 00:29:06;;;;;;;7.72;4.53;;;;;;;;;;5102807;28;20023;-74
2023/01/22 00:31:31;;;;;;;7.80;4.55;;;;;;;;;;5102203;28;20081;-70
2023/01/22 00:33:57;;;;;;;7.05;4.40;;;;;;;;;;5101698;28;20091;-74
2023/01/22 00:36:23;;;;;;;7.35;4.25;;;;;;;;;;5102791;28;20027;-72
2023/01/22 00:38:49;;;;;;;7.43;4.30;;;;;;;;;;5102444;28;20031;-67
2023/01/22 00:41:15;;;;;;;8.35;4.65;;;;;;;;;;5102369;28;20078;-73
2023/01/22 00:43:41;;;;;;;7.18;4.68;;;;;;;;;;5102280;28;20024;-71
2023/01/22 00:46:08;;;;;;;8.45;4.65;;;;;;;;;;5102630;28;20085;-68
2023/01/22 00:48:34;;;;;;;7.55;4.75;;;;;;;;;;5101934;28;20113;-71
2023/01/22 00:51:00;;;;;;;7.65;4.57;;;;;;;;;;5102559;28;20050;-64
2023/01/22 00:53:25;;;;;;;7.25;4.57;;;;;;;;;;5102268;28;20040;-66
2023/01/22 00:55:55;;;;;;;7.50;4.45;;;;;;;;;;5102238;28;20243;-66
2023/01/22 00:58:21;;;;;;;7.75;4.65;;;;;;;;;;5102173;28;20048;-64
2023/01/22 01:00:46;;;;;;;7.60;4.60;;;;;;;;;;5102087;28;20040;-66
2023/01/22 01:03:30;;;;;;;7.53;4.57;;;;;;;;;;5101541;28;20028;-65
2023/01/22 01:06:02;;;;;;;7.22;4.50;;;;;;;;;;5102114;28;20031;-72
2023/01/22 01:08:30;;;;;;;9.10;4.60;;;;;;;;;;5102142;28;20031;-67
2023/01/22 01:11:01;;;;;;;8.25;4.85;;;;;;;;;;5101980;28;20189;-65
2023/01/22 01:13:29;;;;;;;8.27;4.60;;;;;;;;;;5101641;28;20070;-68
2023/01/22 01:16:02;;;;;;;8.05;4.68;;;;;;;;;;5101890;28;20247;-67
2023/01/22 01:18:29;;;;;;;6.53;4.10;;;;;;;;;;5101356;28;20252;-63
2023/01/22 01:20:56;;;;;;;7.47;4.45;;;;;;;;;;5101928;28;20032;-68
2023/01/22 01:23:22;;;;;;;8.15;4.85;;;;;;;;;;5101715;28;20060;-67
2023/01/22 01:25:48;;;;;;;7.55;4.45;;;;;;;;;;5083704;28;20039;-66
2023/01/22 01:28:13;;;;;;;7.82;4.50;;;;;;;;;;5101705;28;20038;-64
2023/01/22 01:30:38;;;;;;;7.82;4.60;;;;;;;;;;5101483;28;20032;-69
2023/01/22 01:33:04;;;;;;;6.72;4.28;;;;;;;;;;5101541;28;20124;-67
2023/01/22 01:35:29;;;;;;;8.13;4.40;;;;;;;;;;5101209;28;20028;-63
2023/01/22 01:37:55;;;;;;;7.70;4.80;;;;;;;;;;5101551;28;20320;-74
2023/01/22 01:40:20;;;;;;;8.82;4.45;;;;;;;;;;5101556;28;20095;-67
2023/01/22 01:42:46;;;;;;;8.07;4.63;;;;;;;;;;5101257;28;20028;-68
2023/01/22 01:45:27;;;;;;;7.25;4.65;;;;;;;;;;5101306;28;20224;-66
2023/01/22 01:48:00;;;;;;;7.00;4.50;;;;;;;;;;5083179;28;20036;-66
2023/01/22 01:50:27;;;;;;;7.13;4.40;;;;;;;;;;5100897;28;20324;-66
2023/01/22 01:52:53;;;;;;;7.97;4.60;;;;;;;;;;5101235;28;20020;-65
2023/01/22 01:55:25;;;;;;;7.50;4.70;;;;;;;;;;5101252;28;20118;-77
2023/01/22 01:57:52;;;;;;;7.68;4.47;;;;;;;;;;5101420;28;20074;-66
2023/01/22 02:00:19;;;;;;;7.55;4.50;;;;;;;;;;5101360;28;20028;-66
2023/01/22 02:02:45;;;;;;;8.77;4.53;;;;;;;;;;5101087;28;20158;-73
2023/01/22 02:05:10;;;;;;;7.28;4.60;;;;;;;;;;5100663;28;20027;-69
2023/01/22 02:07:36;;;;;;;6.93;4.45;;;;;;;;;;5101148;28;20059;-76
2023/01/22 02:10:05;;;;;;;7.38;4.57;;;;;;;;;;5101220;28;20035;-72
2023/01/22 02:12:32;;;;;;;8.05;4.82;;;;;;;;;;5101265;28;20035;-72
2023/01/22 02:14:59;;;;;;;8.15;4.60;;;;;;;;;;5101078;28;20197;-71
2023/01/22 02:17:24;;;;;;;8.85;4.80;;;;;;;;;;5101266;28;20032;-74
2023/01/22 02:19:50;;;;;;;7.20;4.25;;;;;;;;;;5100733;28;20019;-76
2023/01/22 02:22:28;;;;;;;6.95;4.53;;;;;;;;;;5101123;28;20039;-76
2023/01/22 02:24:54;;;;;;;8.85;4.72;;;;;;;;;;5101003;28;20027;-76
2023/01/22 02:27:20;;;;;;;8.20;4.28;;;;;;;;;;5101000;28;20193;-62
2023/01/22 02:29:45;;;;;;;6.97;4.47;;;;;;;;;;5100826;28;20023;-72
2023/01/22 02:32:11;;;;;;;6.82;4.30;;;;;;;;;;5101148;28;20032;-76
2023/01/22 02:34:37;;;;;;;7.90;4.50;;;;;;;;;;5100476;28;20300;-77
2023/01/22 02:37:03;;;;;;;7.55;4.53;;;;;;;;;;5101006;28;20073;-67
2023/01/22 02:39:29;;;;;;;7.72;4.38;;;;;;;;;;5100771;28;20028;-74
2023/01/22 02:41:55;;;;;;;6.97;4.53;;;;;;;;;;5100860;28;20312;-72
2023/01/22 02:44:20;;;;;;;7.40;4.63;;;;;;;;;;5100844;28;20035;-68
2023/01/22 02:46:45;;;;;;;6.55;4.40;;;;;;;;;;5100866;28;20028;-65
2023/01/22 02:49:11;;;;;;;7.25;4.75;;;;;;;;;;5100492;28;20055;-66
2023/01/22 02:51:36;;;;;;;6.03;4.05;;;;;;;;;;5100907;28;20107;-67
2023/01/22 02:54:02;;;;;;;7.50;4.55;;;;;;;;;;5100730;28;20339;-68
2023/01/22 02:56:27;;;;;;;7.88;4.53;;;;;;;;;;5102975;28;20104;-67
2023/01/22 02:58:53;;;;;;;8.13;4.50;;;;;;;;;;5104626;28;20057;-65
2023/01/22 03:01:21;;;;;;;7.00;4.43;;;;;;;;;;5104206;28;20028;-63
2023/01/22 03:03:48;;;;;;;7.53;3.80;;;;;;;;;;5103977;28;20312;-67
2023/01/22 03:06:14;;;;;;;7.00;4.50;;;;;;;;;;5104401;28;20104;-63
2023/01/22 03:08:42;;;;;;;7.85;4.70;;;;;;;;;;5104454;28;20320;-69
2023/01/22 03:11:08;;;;;;;7.15;4.55;;;;;;;;;;5104310;28;20035;-67
2023/01/22 03:21:47;;;;;;;6.45;4.18;;;;;;;;;;5104123;28;20053;-65
2023/01/22 03:24:12;;;;;;;8.20;4.60;;;;;;;;;;5104253;28;20028;-67
2023/01/22 03:26:37;;;;;;;7.28;4.70;;;;;;;;;;5104074;28;20027;-66
2023/01/22 03:29:03;;;;;;;7.88;4.72;;;;;;;;;;5104051;28;20223;-71
2023/01/22 03:31:28;;;;;;;7.85;4.80;;;;;;;;;;5104003;28;20099;-67
2023/01/22 03:33:54;;;;;;;8.88;4.93;;;;;;;;;;5103512;28;20028;-66
2023/01/22 03:36:19;;;;;;;10.75;4.65;;;;;;;;;;5103351;28;20066;-64
2023/01/22 03:38:44;;;;;;;8.75;4.82;;;;;;;;;;5103893;28;20065;-66
2023/01/22 03:41:13;;;;;;;7.55;4.55;;;;;;;;;;5103829;28;20024;-73
2023/01/22 03:43:39;;;;;;;7.00;4.55;;;;;;;;;;5103766;28;20030;-69
2023/01/22 03:46:09;;;;;;;7.68;4.35;;;;;;;;;;5103458;28;20193;-71
2023/01/22 03:48:35;;;;;;;7.90;4.63;;;;;;;;;;5103374;28;20216;-74
2023/01/22 03:51:12;;;;;;;7.68;4.82;;;;;;;;;;5103581;28;20103;-64
2023/01/22 03:53:38;;;;;;;8.43;4.72;;;;;;;;;;5103446;28;20032;-62
2023/01/22 03:56:07;;;;;;;9.93;4.72;;;;;;;;;;5103351;28;20092;-66
2023/01/22 03:58:32;;;;;;;7.85;4.82;;;;;;;;;;5103592;28;20095;-71
2023/01/22 04:01:07;;;;;;;8.95;4.93;;;;;;;;;;5103128;28;20040;-63
2023/01/22 04:03:33;;;;;;;9.82;5.22;;;;;;;;;;5103149;28;20032;-73
2023/01/22 04:06:01;;;;;;;7.40;4.63;;;;;;;;;;5102706;28;20242;-64
2023/01/22 04:08:31;;;;;;;8.85;4.90;;;;;;;;;;5103176;28;20085;-63
2023/01/22 04:10:57;;;;;;;9.25;5.30;;;;;;;;;;5103057;28;20335;-62
2023/01/22 04:13:24;;;;;;;9.13;5.05;;;;;;;;;;5103122;28;20099;-64
2023/01/22 04:15:49;;;;;;;9.68;5.20;;;;;;;;;;5102993;28;20032;-64
2023/01/22 04:18:14;;;;;;;8.38;4.85;;;;;;;;;;5103224;28;20038;-64
2023/01/22 04:20:40;;;;;;;8.35;4.90;;;;;;;;;;5102647;28;20211;-65
2023/01/22 04:23:06;;;;;;;8.50;4.82;;;;;;;;;;5102951;28;20036;-64
2023/01/22 04:25:32;;;;;;;8.43;5.15;;;;;;;;;;5102671;28;20028;-64
2023/01/22 04:27:57;;;;;;;8.82;5.38;;;;;;;;;;5102665;28;20074;-62
2023/01/22 04:30:23;;;;;;;7.93;5.15;;;;;;;;;;5102643;28;20224;-63
2023/01/22 04:32:51;;;;;;;10.35;5.30;;;;;;;;;;5102818;28;20024;-63
2023/01/22 04:35:16;;;;;;;8.02;5.07;;;;;;;;;;5102282;28;20034;-64
2023/01/22 04:37:42;;;;;;;12.00;5.72;;;;;;;;;;5102632;28;20175;-64
2023/01/22 04:40:08;;;;;;;10.38;5.57;;;;;;;;;;5102741;28;20023;-67
2023/01/22 04:42:34;;;;;;;9.38;5.32;;;;;;;;;;5102355;28;20197;-63
2023/01/22 04:44:59;;;;;;;9.63;5.13;;;;;;;;;;5102432;28;20096;-64
2023/01/22 04:47:25;;;;;;;9.32;5.20;;;;;;;;;;5102232;28;20343;-63
2023/01/22 04:49:50;;;;;;;9.27;5.15;;;;;;;;;;5102252;28;20028;-62
2023/01/22 04:52:16;;;;;;;9.60;5.68;;;;;;;;;;5084397;28;20638;-69
2023/01/22 04:54:42;;;;;;;8.68;5.40;;;;;;;;;;5102243;28;20377;-64
2023/01/22 04:57:08;;;;;;;8.35;5.07;;;;;;;;;;5102459;28;20053;-72
2023/01/22 04:59:33;;;;;;;9.10;5.45;;;;;;;;;;5102308;28;20091;-72
2023/01/22 05:01:59;;;;;;;9.00;5.53;;;;;;;;;;5101889;28;20032;-64
2023/01/22 05:04:25;;;;;;;10.10;5.78;;;;;;;;;;5101702;28;20096;-70
2023/01/22 05:06:50;;;;;;;9.25;5.50;;;;;;;;;;5102115;28;20055;-74
2023/01/22 05:09:15;;;;;;;10.13;5.78;;;;;;;;;;5102281;28;20027;-68
2023/01/22 05:11:41;;;;;;;9.50;5.85;;;;;;;;;;5102000;28;20243;-69
2023/01/22 05:14:06;;;;;;;9.20;5.43;;;;;;;;;;5101873;28;20029;-73
2023/01/22 05:16:32;;;;;;;8.93;5.32;;;;;;;;;;5101849;28;20035;-72
2023/01/22 05:18:58;;;;;;;9.90;5.80;;;;;;;;;;5100913;28;20365;-74
2023/01/22 05:21:23;;;;;;;10.45;6.18;;;;;;;;;;5101712;28;20095;-68
2023/01/22 05:23:49;;;;;;;10.30;5.18;;;;;;;;;;5102026;28;20031;-69
2023/01/22 05:26:14;;;;;;;9.45;5.85;;;;;;;;;;5101573;28;20023;-65
2023/01/22 05:28:39;;;;;;;10.55;5.93;;;;;;;;;;5101929;28;20480;-67
2023/01/22 05:31:05;;;;;;;11.07;5.93;;;;;;;;;;5101744;28;20031;-74
2023/01/22 05:33:31;;;;;;;10.52;6.28;;;;;;;;;;5101440;28;20245;-72
2023/01/22 05:36:01;;;;;;;10.65;5.97;;;;;;;;;;5101623;28;20027;-65
2023/01/22 05:38:28;;;;;;;11.73;6.20;;;;;;;;;;5101553;28;20126;-62
2023/01/22 05:40:54;;;;;;;9.00;5.60;;;;;;;;;;5101594;28;20024;-63
2023/01/22 05:43:20;;;;;;;11.65;5.68;;;;;;;;;;5101608;28;20043;-63
2023/01/22 05:45:45;;;;;;;10.80;5.70;;;;;;;;;;5101428;28;20254;-64
2023/01/22 05:48:11;;;;;;;9.93;6.07;;;;;;;;;;5101449;28;20032;-63
2023/01/22 05:50:36;;;;;;;10.18;6.00;;;;;;;;;;5101167;28;20031;-64
2023/01/22 05:53:02;;;;;;;10.27;5.80;;;;;;;;;;5101280;28;20066;-63
2023/01/22 05:55:28;;;;;;;10.40;6.03;;;;;;;;;;5101179;28;20028;-67
2023/01/22 05:57:53;;;;;;;11.18;6.35;;;;;;;;;;5101257;28;20028;-66
2023/01/22 06:00:19;;;;;;;8.75;5.78;;;;;;;;;;5101392;28;20024;-63
2023/01/22 06:02:44;;;;;;;10.63;6.10;;;;;;;;;;5101140;28;20028;-64
2023/01/22 06:05:10;;;;;;;9.77;5.82;;;;;;;;;;5100970;28;20247;-72
2023/01/22 06:07:35;;;;;;;10.95;6.15;;;;;;;;;;5101125;28;20043;-72
2023/01/22 06:10:00;;;;;;;10.73;5.80;;;;;;;;;;5101216;28;20055;-70
2023/01/22 06:12:26;;;;;;;11.32;6.10;;;;;;;;;;5100951;28;20032;-75
2023/01/22 06:14:53;;;;;;;11.05;5.80;;;;;;;;;;5100962;28;20031;-67
2023/01/22 06:17:18;;;;;;;9.90;5.90;;;;;;;;;;5101036;28;20101;-70
2023/01/22 06:19:43;;;;;;;11.35;6.05;;;;;;;;;;5100762;28;20368;-66
2023/01/22 06:22:09;;;;;;;9.75;5.90;;;;;;;;;;5101098;28;20035;-74
2023/01/22 06:24:34;;;;;;;10.30;5.55;;;;;;;;;;5100937;28;20044;-76
2023/01/22 06:26:59;;;;;;;11.35;6.07;;;;;;;;;;5100818;28;20218;-69
2023/01/22 06:29:25;;;;;;;11.02;6.30;;;;;;;;;;5101849;28;20028;-71
2023/01/22 06:31:50;;;;;;;12.32;6.35;;;;;;;;;;5105061;28;20044;-69
2023/01/22 06:34:15;;;;;;;11.68;6.32;;;;;;;;;;5104717;28;20219;-67
2023/01/22 06:36:41;;;;;;;11.35;6.40;;;;;;;;;;5104956;28;20040;-69
2023/01/22 06:39:06;;;;;;;11.05;6.30;;;;;;;;;;5105008;28;20138;-72
2023/01/22 06:41:32;;;;;;;10.05;5.95;;;;;;;;;;5105045;28;20051;-73
2023/01/22 06:43:57;;;;;;;10.90;6.30;;;;;;;;;;5104808;28;20031;-73
2023/01/22 06:46:23;;;;;;;11.85;6.43;;;;;;;;;;5104686;28;20024;-73
2023/01/22 06:48:48;;;;;;;13.30;6.45;;;;;;;;;;5104331;28;20066;-70
2023/01/22 06:51:14;;;;;;;10.75;6.50;;;;;;;;;;5104851;28;20028;-75
2023/01/22 06:53:39;;;;;;;12.23;6.63;;;;;;;;;;5104806;28;20031;-74
2023/01/22 06:56:05;;;;;;;12.88;6.85;;;;;;;;;;5104473;28;20066;-72
2023/01/22 06:58:31;;;;;;;11.27;6.55;;;;;;;;;;5104895;28;20020;-74
2023/01/22 07:01:00;;;;;;;11.77;7.05;;;;;;;;;;5104585;28;20346;-74
2023/01/22 07:03:26;;;;;;;13.02;6.43;;;;;;;;;;5102810;28;20119;-74
2023/01/22 07:05:56;;;;;;;10.95;6.28;;;;;;;;;;5104319;28;20035;-74
2023/01/22 07:08:22;;;;;;;;;;;;;;;;;;5104781;28;20020;-69
2023/01/22 07:10:47;;;;;;;10.15;5.80;;;;;;;;;;5086507;28;19975;-72
2023/01/22 07:13:14;;;;;;;12.50;6.68;;;;;;;;;;5104342;28;20061;-73
2023/01/22 07:15:40;;;;;;;11.88;6.50;;;;;;;;;;5104277;28;20077;-73
2023/01/22 07:18:05;;;;;;;12.02;6.75;;;;;;;;;;5104299;28;20027;-70
2023/01/22 07:20:31;;;;;;;11.93;6.65;;;;;;;;;;5103809;28;20028;-69
2023/01/22 07:22:57;;;;;;;10.77;6.25;;;;;;;;;;5103914;28;20085;-72
2023/01/22 07:25:22;;;;;;;12.38;6.57;;;;;;;;;;5104016;28;20224;-71
2023/01/22 07:27:48;;;;;;;13.68;7.05;;;;;;;;;;5103942;28;20036;-72
2023/01/22 07:30:13;;;;;;;10.90;6.40;;;;;;;;;;5104223;28;20028;-75
2023/01/22 07:32:39;;;;;;;11.18;6.70;;;;;;;;;;5103992;28;20027;-73
2023/01/22 07:35:04;;;;;;;12.88;6.72;;;;;;;;;;5103401;28;20031;-76
2023/01/22 07:37:30;;;;;;;12.65;7.07;;;;;;;;;;5103835;28;20031;-73
2023/01/22 07:39:55;;;;;;;13.25;7.30;;;;;;;;;;5103700;28;20020;-76
2023/01/22 07:42:20;;;;;;;13.25;7.43;;;;;;;;;;5103019;28;20020;-73
2023/01/22 07:44:46;;;;;;;13.65;7.50;;;;;;;;;;5103696;28;20044;-73
2023/01/22 07:47:11;;;;;;;14.20;7.70;;;;;;;;;;5103530;28;20028;-72
2023/01/22 07:49:36;;;;;;;13.25;6.90;;;;;;;;;;5103417;28;20323;-73
2023/01/22 07:52:02;;;;;;;13.13;7.50;;;;;;;;;;5104076;28;20026;-71
2023/01/22 07:54:35;;;;;;;12.20;7.00;;;;;;;;;;5103489;28;20050;-68
2023/01/22 07:57:00;;;;;;;11.98;7.18;;;;;;;;;;5103246;28;20040;-68
2023/01/22 07:59:26;;;;;;;17.52;7.95;;;;;;;;;;5103381;28;20035;-74
2023/01/22 08:01:53;;;;;;;13.25;7.75;;;;;;;;;;5103360;28;20035;-73
2023/01/22 08:04:18;;;;;;;14.45;8.15;;;;;;;;;;5102980;28;20050;-67
2023/01/22 08:06:44;;;;;;;14.75;8.18;;;;;;;;;;5103056;28;20048;-74
2023/01/22 08:09:09;;;;;;;17.42;8.57;;;;;;;;;;5103312;28;20088;-74
2023/01/22 08:11:34;;;;;;;14.75;8.07;;;;;;;;;;5103275;28;20096;-73
2023/01/22 08:14:00;;;;;;;13.98;7.72;;;;;;;;;;5103195;28;20212;-71
2023/01/22 08:16:25;;;;;;;16.08;8.55;;;;;;;;;;5103033;28;20089;-71
2023/01/22 08:18:51;;;;;;;15.23;7.93;;;;;;;;;;5102684;28;20019;-73
2023/01/22 08:21:16;;;;;;;23.83;10.68;;;;;;;;;;5103095;28;20031;-73
2023/01/22 08:23:41;;;;;;;17.65;9.30;;;;;;;;;;5102894;28;20012;-72
2023/01/22 08:26:07;;;;;;;16.25;9.00;;;;;;;;;;5102899;28;20324;-72
2023/01/22 08:28:32;;;;;;;17.63;8.90;;;;;;;;;;5102856;28;20046;-73
2023/01/22 08:30:59;;;;;;;15.10;8.77;;;;;;;;;;5102880;28;20027;-74
2023/01/22 08:33:25;;;;;;;15.18;8.90;;;;;;;;;;5102246;28;20051;-73
2023/01/22 08:35:51;;;;;;;14.57;8.20;;;;;;;;;;5102645;28;20027;-76
2023/01/22 08:38:16;;;;;;;15.25;9.00;;;;;;;;;;5102735;28;20032;-72
2023/01/22 08:40:42;;;;;;;17.45;8.98;;;;;;;;;;5102713;28;20241;-73
2023/01/22 08:43:07;;;;;;;15.60;8.68;;;;;;;;;;5102681;28;20308;-73
2023/01/22 08:45:33;;;;;;;14.32;8.38;;;;;;;;;;5102486;28;20044;-74
2023/01/22 08:47:59;;;;;;;15.45;9.00;;;;;;;;;;5102775;28;20036;-72
2023/01/22 08:50:25;;;;;;;17.15;8.88;;;;;;;;;;5101915;28;20028;-73
2023/01/22 08:52:50;;;;;;;15.98;9.00;;;;;;;;;;5101547;28;20087;-72
2023/01/22 08:55:16;;;;;;;16.27;9.15;;;;;;;;;;5102272;28;20258;-75
2023/01/22 08:57:41;;;;;;;17.35;8.75;;;;;;;;;;5102304;28;20023;-73
2023/01/22 09:00:07;;;;;;;18.77;10.02;;;;;;;;;;5102479;28;20319;-75
2023/01/22 09:02:33;;;;;;;17.23;9.45;;;;;;;;;;5102381;28;20032;-68
2023/01/22 09:04:58;;;;;;;17.70;9.55;;;;;;;;;;5101759;28;20095;-72
2023/01/22 09:07:24;;;;;;;17.65;9.95;;;;;;;;;;5101857;28;20070;-72
2023/01/22 09:09:49;;;;;;;21.27;10.32;;;;;;;;;;5101967;28;20026;-73
2023/01/22 09:12:15;;;;;;;21.48;9.73;;;;;;;;;;5101996;28;20031;-77
2023/01/22 09:14:40;;;;;;;18.30;9.52;;;;;;;;;;5101889;28;20048;-74
2023/01/22 09:17:05;;;;;;;16.60;9.75;;;;;;;;;;5101895;28;20031;-72
2023/01/22 09:19:31;;;;;;;17.38;9.50;;;;;;;;;;5101473;28;20042;-83
2023/01/22 09:21:56;;;;;;;17.52;9.68;;;;;;;;;;5101996;28;20019;-77
2023/01/22 09:24:22;;;;;;;17.42;9.45;;;;;;;;;;5101628;28;20024;-76
2023/01/22 09:26:47;;;;;;;17.83;9.40;;;;;;;;;;5101499;28;20090;-74
2023/01/22 09:29:12;;;;;;;16.35;8.82;;;;;;;;;;5101791;28;20032;-75
2023/01/22 09:31:38;;;;;;;16.33;9.50;;;;;;;;;;5101784;28;20073;-74
2023/01/22 09:34:03;;;;;;;18.52;10.55;;;;;;;;;;5099659;28;20036;-82
2023/01/22 09:36:29;;;;;;;18.50;9.32;;;;;;;;;;5101601;28;20067;-75
2023/01/22 09:38:55;;;;;;;21.08;10.45;;;;;;;;;;5101642;28;20043;-75
2023/01/22 09:41:35;;;;;;;16.73;9.30;;;;;;;;;;5100283;28;20212;-72
2023/01/22 09:44:05;;;;;;;16.40;9.18;;;;;;;;;;5101124;28;20031;-73
2023/01/22 09:46:39;;;;;;;15.77;8.68;;;;;;;;;;5101089;28;20028;-72
2023/01/22 09:49:16;;;;;;;17.80;10.07;;;;;;;;;;5101045;28;20058;-73
2023/01/22 09:51:53;;;;;;;18.33;9.55;;;;;;;;;;5097200;28;20023;-68
2023/01/22 09:54:19;;;;;;;18.73;9.35;;;;;;;;;;5086061;28;20044;-65
2023/01/22 09:56:48;;;;;;;17.23;9.38;;;;;;;;;;5098199;28;20395;-69
2023/01/22 09:59:20;;;;;;;17.13;9.15;;;;;;;;;;5092806;28;20015;-71
2023/01/22 10:01:54;;;;;;;17.00;9.50;;;;;;;;;;5082502;28;20135;-69
2023/01/22 10:04:35;;;;;;;18.50;9.32;;;;;;;;;;5080140;28;20046;-74
2023/01/22 10:07:04;;;;;;;20.27;9.80;;;;;;;;;;5087283;28;20063;-72
2023/01/22 10:09:31;;;;;;;19.15;9.75;;;;;;;;;;5087372;28;20107;-73
2023/01/22 10:11:59;;;;;;;21.05;10.50;;;;;;;;;;5087568;28;20131;-75
2023/01/22 10:14:27;;;;;;;20.60;10.85;;;;;;;;;;5101112;28;20102;-74
2023/01/22 10:16:55;;;;;;;18.45;9.45;;;;;;;;;;5100728;28;20030;-73
2023/01/22 10:19:48;;;;;;;18.73;9.88;;;;;;;;;;5100577;28;20047;-75
2023/01/22 10:22:23;;;;;;;21.05;10.32;;;;;;;;;;5098132;28;20040;-74
2023/01/22 10:24:48;;;;;;;18.83;10.43;;;;;;;;;;5100914;28;20088;-71
2023/01/22 10:27:17;;;;;;;20.55;10.77;;;;;;;;;;5090365;28;20031;-74
2023/01/22 10:30:03;;;;;;;18.98;10.27;;;;;;;;;;5079901;28;20353;-73
2023/01/22 10:32:30;;;;;;;18.60;9.73;;;;;;;;;;5080551;28;20039;-75
2023/01/22 10:34:59;;;;;;;20.42;10.43;;;;;;;;;;5080541;28;20091;-74
2023/01/22 10:37:25;;;;;;;21.17;10.20;;;;;;;;;;5079418;28;20028;-77
2023/01/22 10:39:56;;;;;;;21.00;10.77;;;;;;;;;;5080586;28;20044;-73
2023/01/22 10:42:24;;;;;;;19.92;10.35;;;;;;;;;;5076272;28;20499;-74
2023/01/22 10:45:07;;;;;;;17.42;9.68;;;;;;;;;;5076606;28;20024;-71
2023/01/22 10:47:32;;;;;;;17.95;9.75;;;;;;;;;;5075318;28;20032;-72
2023/01/22 10:50:24;;;;;;;18.92;10.43;;;;;;;;;;5070074;28;20075;-72
2023/01/22 10:52:53;;;;;;;19.20;9.68;;;;;;;;;;5065643;28;20039;-74
2023/01/22 10:55:29;;;;;;;21.65;10.70;;;;;;;;;;5088358;28;20713;-69
2023/01/22 10:58:01;;;;;;;20.27;10.68;;;;;;;;;;5088309;28;20028;-73
2023/01/22 11:00:38;;;;;;;21.90;11.48;;;;;;;;;;5092405;28;20074;-73
2023/01/22 11:03:19;;;;;;;18.55;9.93;;;;;;;;;;5091990;28;20036;-76
2023/01/22 11:05:46;;;;;;;19.35;10.13;;;;;;;;;;5093538;28;20091;-73
2023/01/22 11:08:15;;;;;;;21.45;10.73;;;;;;;;;;5089623;28;20115;-74
2023/01/22 11:10:58;;;;;;;20.33;10.50;;;;;;;;;;5091325;28;20448;-72
2023/01/22 11:13:37;;;;;;;20.90;11.15;;;;;;;;;;5089302;28;20020;-72
2023/01/22 11:16:11;;;;;;;20.98;10.95;;;;;;;;;;5089378;28;20016;-72
2023/01/22 11:18:44;;;;;;;21.38;11.13;;;;;;;;;;5092853;28;20074;-75
2023/01/22 11:21:25;;;;;;;24.02;11.82;;;;;;;;;;5092804;28;20024;-74
2023/01/22 11:24:11;;;;;;;24.48;11.80;;;;;;;;;;5092917;28;20054;-75
2023/01/22 11:27:07;;;;;;;23.75;11.10;;;;;;;;;;5091945;28;20090;-71
2023/01/22 11:29:58;;;;;;;22.90;10.77;;;;;;;;;;5092633;28;20122;-72
2023/01/22 11:32:42;;;;;;;21.77;10.43;;;;;;;;;;5092342;28;20111;-74
2023/01/22 11:35:28;;;;;;;21.58;11.13;;;;;;;;;;5092293;28;20032;-72
2023/01/22 11:38:14;;;;;;;21.33;11.05;;;;;;;;;;5092515;28;20016;-73
2023/01/22 11:41:00;;;;;;;20.27;10.27;;;;;;;;;;5092343;28;20484;-75
2023/01/22 11:43:54;;;;;;;19.23;9.93;;;;;;;;;;5092482;28;20031;-72
2023/01/22 11:47:01;;;;;;;21.65;10.80;;;;;;;;;;5091742;28;20446;-72
2023/01/22 11:50:05;;;;;;;20.92;10.20;;;;;;;;;;5012146;28;20026;-74
2023/01/22 11:52:46;;;;;;;21.13;10.77;;;;;;;;;;4999892;28;20049;-72
2023/01/22 11:55:39;;;;;;;20.27;10.32;;;;;;;;;;5063599;28;20324;-74
2023/01/22 11:58:46;;;;;;;20.60;10.00;;;;;;;;;;5072516;28;20032;-73
2023/01/22 12:01:44;;;;;;;17.67;9.70;;;;;;;;;;4981056;28;20113;-71
2023/01/22 12:04:12;;;;;;;19.85;10.50;;;;;;;;;;5096187;28;20095;-70
2023/01/22 12:06:56;;;;;;;23.27;11.10;;;;;;;;;;5094961;28;20338;-72
2023/01/22 12:09:39;;;;;;;19.25;10.00;;;;;;;;;;5092407;28;20101;-73
2023/01/22 12:12:22;;;;;;;19.75;10.50;;;;;;;;;;5092285;28;20518;-72
2023/01/22 12:14:56;;;;;;;18.92;9.95;;;;;;;;;;5092016;28;20016;-74
2023/01/22 12:17:51;;;;;;;20.20;10.25;;;;;;;;;;5090312;28;20107;-75
2023/01/22 12:20:24;;;;;;;20.63;10.32;;;;;;;;;;5089547;28;20059;-75
2023/01/22 12:22:58;;;;;;;19.95;10.43;;;;;;;;;;5092121;28;20571;-73
2023/01/22 12:25:54;;;;;;;22.70;11.13;;;;;;;;;;5090450;28;20020;-73
2023/01/22 12:28:19;;;;;;;19.00;10.05;;;;;;;;;;5091086;28;20035;-77
2023/01/22 12:31:07;;;;;;;18.77;10.02;;;;;;;;;;5091877;28;20028;-74
2023/01/22 12:33:38;;;;;;;23.20;11.35;;;;;;;;;;5096308;28;20561;-81
2023/01/22 12:36:05;;;;;;;20.35;11.15;;;;;;;;;;5091860;28;20479;-76
2023/01/22 12:38:51;;;;;;;23.00;10.95;;;;;;;;;;5089847;28;20016;-81
2023/01/22 12:41:46;;;;;;;22.50;11.68;;;;;;;;;;5070789;28;20025;-77
2023/01/22 12:44:32;;;;;;;22.92;11.50;;;;;;;;;;5061814;28;20033;-80
2023/01/22 12:47:28;;;;;;;20.02;11.25;;;;;;;;;;5071137;28;20032;-75
2023/01/22 12:49:54;;;;;;;20.40;10.70;;;;;;;;;;5070517;28;20103;-76
2023/01/22 12:52:35;;;;;;;23.00;10.88;;;;;;;;;;5071205;28;20142;-74
2023/01/22 12:55:42;;;;;;;22.20;11.32;;;;;;;;;;5072352;28;20043;-77
2023/01/22 12:58:26;;;;;;;23.73;10.80;;;;;;;;;;5008111;28;20029;-76
2023/01/22 13:01:05;;;;;;;22.33;11.50;;;;;;;;;;5008755;28;20046;-74
2023/01/22 13:03:31;;;;;;;23.30;11.32;;;;;;;;;;5052809;28;20527;-75
2023/01/22 13:05:58;;;;;;;22.55;11.43;;;;;;;;;;5070943;28;20506;-73
2023/01/22 13:08:25;;;;;;;23.27;10.98;;;;;;;;;;5070309;28;20047;-79
2023/01/22 13:11:03;;;;;;;22.33;11.15;;;;;;;;;;5070416;28;20423;-73
2023/01/22 13:13:34;;;;;;;21.23;11.15;;;;;;;;;;5070206;28;20048;-80
2023/01/22 13:16:25;;;;;;;19.60;10.98;;;;;;;;;;5070363;28;20108;-73
2023/01/22 13:18:55;;;;;;;23.58;11.80;;;;;;;;;;5051910;28;20043;-76
2023/01/22 13:21:29;;;;;;;24.42;11.95;;;;;;;;;;5087083;28;20032;-78
2023/01/22 13:24:02;;;;;;;22.73;12.55;;;;;;;;;;5093491;28;20036;-74
2023/01/22 13:26:30;;;;;;;25.38;12.23;;;;;;;;;;5097595;28;20048;-80
2023/01/22 13:29:03;;;;;;;22.67;11.77;;;;;;;;;;5091722;28;20349;-77
2023/01/22 13:31:28;;;;;;;23.63;12.07;;;;;;;;;;5089943;28;20024;-77
2023/01/22 13:33:55;;;;;;;26.98;12.30;;;;;;;;;;5096189;28;20039;-75
2023/01/22 13:36:21;;;;;;;24.52;12.38;;;;;;;;;;5099283;28;20046;-77
2023/01/22 13:38:52;;;;;;;25.25;13.10;;;;;;;;;;5100842;28;20032;-77
2023/01/22 13:41:25;;;;;;;27.33;13.70;;;;;;;;;;5095164;28;20066;-74
2023/01/22 13:43:51;;;;;;;25.75;13.38;;;;;;;;;;5091417;28;20070;-76
2023/01/22 13:46:16;;;;;;;24.90;13.15;;;;;;;;;;5090224;28;20068;-77
2023/01/22 13:48:42;;;;;;;25.70;12.98;;;;;;;;;;5089351;28;20024;-75
2023/01/22 13:51:17;;;;;;;25.98;12.80;;;;;;;;;;5090080;28;20438;-77
2023/01/22 13:53:45;;;;;;;20.90;11.60;;;;;;;;;;5100027;28;20020;-71
2023/01/22 13:56:15;;;;;;;24.30;12.63;;;;;;;;;;5100160;28;20106;-77
2023/01/22 13:58:41;;;;;;;27.48;12.57;;;;;;;;;;5097936;28;20016;-79
2023/01/22 14:01:08;;;;;;;25.30;12.90;;;;;;;;;;5090304;28;20119;-77
2023/01/22 14:03:34;;;;;;;24.73;11.93;;;;;;;;;;5089714;28;20020;-79
2023/01/22 14:06:13;;;;;;;26.02;11.60;;;;;;;;;;5089974;28;20035;-75
2023/01/22 14:08:54;;;;;;;23.27;11.48;;;;;;;;;;5089325;28;20035;-69
2023/01/22 14:11:20;;;;;;;24.73;12.00;;;;;;;;;;5092100;28;20239;-76
2023/01/22 14:13:48;;;;;;;23.90;11.55;;;;;;;;;;5091774;28;20030;-81
2023/01/22 14:16:14;;;;;;;25.88;13.25;;;;;;;;;;5090236;28;20380;-77
2023/01/22 14:18:40;;;;;;;23.73;12.63;;;;;;;;;;5089294;28;20476;-77
2023/01/22 14:21:06;;;;;;;25.70;12.20;;;;;;;;;;5092027;28;20024;-78
2023/01/22 14:23:33;;;;;;;25.58;12.73;;;;;;;;;;5091336;28;20467;-79
2023/01/22 14:26:01;;;;;;;26.92;13.15;;;;;;;;;;5092242;28;20028;-78
2023/01/22 14:28:29;;;;;;;26.08;13.63;;;;;;;;;;5100466;28;20025;-78
2023/01/22 14:30:55;;;;;;;28.42;13.60;;;;;;;;;;5087332;28;20034;-76
2023/01/22 14:33:24;;;;;;;26.92;13.10;;;;;;;;;;5080661;28;20052;-79
2023/01/22 14:35:51;;;;;;;26.10;12.10;;;;;;;;;;5090316;28;20342;-78
2023/01/22 14:38:17;;;;;;;22.95;11.98;;;;;;;;;;5084494;28;20281;-79
2023/01/22 14:40:43;;;;;;;22.88;12.13;;;;;;;;;;5080646;28;20058;-81
2023/01/22 14:43:09;;;;;;;26.15;12.50;;;;;;;;;;5080777;28;20029;-75
2023/01/22 14:45:34;;;;;;;25.80;12.10;;;;;;;;;;5087909;28;20032;-81
2023/01/22 14:48:00;;;;;;;25.45;12.02;;;;;;;;;;5080215;28;20040;-80
2023/01/22 14:50:26;;;;;;;26.88;12.90;;;;;;;;;;5080355;28;20056;-77